createdAt,value
2023-04-12T00:01:08.425Z,98097.19
2023-04-12T00:03:51.438Z,98092.00
2023-04-12T00:06:28.505Z,98095.50
2023-04-12T00:09:11.629Z,98087.22
2023-04-12T00:11:47.479Z,98087.84
2023-04-12T00:14:18.253Z,98092.25
2023-04-12T00:16:49.239Z,98085.50
2023-04-12T00:19:34.510Z,98090.81
2023-04-12T00:22:04.459Z,98097.75
2023-04-12T00:24:38.046Z,98087.88
2023-04-12T00:27:09.864Z,98076.22
2023-04-12T00:29:43.658Z,98087.66
2023-04-12T00:32:11.745Z,98092.59
2023-04-12T00:34:53.385Z,98088.25
2023-04-12T00:37:25.416Z,98093.94
2023-04-12T00:39:59.500Z,98096.63
2023-04-12T00:42:32.730Z,98047.63
2023-04-12T00:45:03.736Z,98088.59
2023-04-12T00:47:35.252Z,98092.47
2023-04-12T00:50:19.016Z,98068.97
2023-04-12T00:53:00.386Z,98090.13
2023-04-12T00:55:30.751Z,98089.91
2023-04-12T00:58:10.568Z,98088.22
2023-04-12T01:00:54.561Z,98078.63
2023-04-12T01:03:34.532Z,98082.13
2023-04-12T01:07:05.876Z,98077.75
2023-04-12T01:10:22.386Z,98079.34
2023-04-12T01:13:09.625Z,98073.81
2023-04-12T01:15:51.245Z,98059.94
2023-04-12T01:18:43.995Z,98055.91
2023-04-12T01:21:19.763Z,98069.03
2023-04-12T01:24:39.870Z,98066.88
2023-04-12T01:27:21.052Z,98058.88
2023-04-12T01:29:51.817Z,98070.75
2023-04-12T01:32:32.493Z,98072.09
2023-04-12T01:35:13.881Z,98060.06
2023-04-12T01:37:55.422Z,98078.91
2023-04-12T01:40:27.674Z,98047.97
2023-04-12T01:43:16.003Z,98065.22
2023-04-12T01:45:43.975Z,98052.91
2023-04-12T01:48:13.739Z,98041.47
2023-04-12T01:51:30.010Z,98037.91
2023-04-12T01:54:28.814Z,98059.25
2023-04-12T01:57:00.747Z,98060.59
2023-04-12T02:00:08.896Z,98054.56
2023-04-12T02:03:06.636Z,98068.22
2023-04-12T02:05:37.693Z,98055.41
2023-04-12T02:08:09.769Z,98054.06
2023-04-12T02:13:32.874Z,98061.44
2023-04-12T02:16:05.735Z,98060.88
2023-04-12T02:18:44.330Z,98064.69
2023-04-12T02:21:25.069Z,98066.34
2023-04-12T02:23:57.112Z,98063.63
2023-04-12T02:26:30.692Z,98059.81
2023-04-12T02:29:05.165Z,98061.97
2023-04-12T02:31:41.958Z,98048.59
2023-04-12T02:34:20.857Z,98052.41
2023-04-12T02:37:14.266Z,98041.16
2023-04-12T02:39:57.874Z,98053.22
2023-04-12T02:42:29.801Z,98049.97
2023-04-12T02:45:01.414Z,98048.84
2023-04-12T02:47:48.080Z,98051.56
2023-04-12T02:50:32.958Z,98042.28
2023-04-12T02:53:14.777Z,98046.09
2023-04-12T02:55:52.517Z,98051.22
2023-04-12T02:58:27.376Z,98063.00
2023-04-12T03:01:00.371Z,98060.31
2023-04-12T03:03:39.891Z,98046.09
2023-04-12T03:06:27.782Z,98069.91
2023-04-12T03:09:05.542Z,98064.16
2023-04-12T03:11:35.953Z,98061.69
2023-04-12T03:14:09.462Z,98047.22
2023-04-12T03:16:42.612Z,98063.34
2023-04-12T03:19:19.648Z,98058.41
2023-04-12T03:22:04.539Z,98053.75
2023-04-12T03:24:37.493Z,98061.94
2023-04-12T03:27:08.792Z,98052.34
2023-04-12T03:29:53.189Z,98050.44
2023-04-12T03:32:28.146Z,98046.91
2023-04-12T03:35:06.258Z,98042.53
2023-04-12T03:37:46.562Z,98024.50
2023-04-12T03:40:15.078Z,98053.75
2023-04-12T03:43:05.973Z,98045.78
2023-04-12T03:45:36.510Z,98045.81
2023-04-12T03:48:08.635Z,98051.84
2023-04-12T03:50:45.343Z,98052.94
2023-04-12T03:53:27.818Z,98048.84
2023-04-12T03:56:03.231Z,98059.75
2023-04-12T03:58:42.767Z,98061.44
2023-04-12T04:01:14.315Z,98063.03
2023-04-12T04:03:48.625Z,98031.59
2023-04-12T04:06:33.065Z,98052.13
2023-04-12T04:09:20.392Z,98047.19
2023-04-12T04:12:04.114Z,98054.59
2023-04-12T04:14:40.271Z,98052.41
2023-04-12T04:17:11.118Z,98034.81
2023-04-12T04:19:52.080Z,98048.41
2023-04-12T04:22:31.290Z,98058.59
2023-04-12T04:25:10.436Z,98057.97
2023-04-12T04:27:52.380Z,98057.13
2023-04-12T04:30:33.941Z,98057.38
2023-04-12T04:33:20.361Z,98061.22
2023-04-12T04:35:55.213Z,98057.94
2023-04-12T04:38:48.291Z,98055.16
2023-04-12T04:41:43.684Z,98068.59
2023-04-12T04:44:28.525Z,98053.22
2023-04-12T04:47:07.732Z,98063.84
2023-04-12T04:49:45.196Z,98061.09
2023-04-12T04:52:33.695Z,98076.50
2023-04-12T04:55:11.842Z,98059.47
2023-04-12T04:57:45.173Z,98071.22
2023-04-12T05:00:23.918Z,98017.94
2023-04-12T05:03:06.625Z,98058.38
2023-04-12T05:05:37.145Z,98070.69
2023-04-12T05:08:20.436Z,98052.38
2023-04-12T05:11:11.428Z,98069.75
2023-04-12T05:13:41.989Z,98069.28
2023-04-12T05:16:11.955Z,98073.91
2023-04-12T05:18:45.352Z,98078.53
2023-04-12T05:21:26.647Z,98079.06
2023-04-12T05:23:59.808Z,98086.22
2023-04-12T05:26:32.772Z,98075.69
2023-04-12T05:29:13.548Z,98076.00
2023-04-12T05:31:42.436Z,98078.94
2023-04-12T05:34:24.388Z,98065.00
2023-04-12T05:37:08.017Z,98074.69
2023-04-12T05:42:33.276Z,98083.56
2023-04-12T05:45:04.892Z,98075.34
2023-04-12T05:47:37.467Z,98083.03
2023-04-12T05:50:10.937Z,98071.81
2023-04-12T05:52:42.882Z,98076.41
2023-04-12T05:55:14.214Z,98082.94
2023-04-12T05:57:53.141Z,98084.50
2023-04-12T06:00:27.014Z,98086.06
2023-04-12T06:03:03.287Z,98087.34
2023-04-12T06:05:48.847Z,98067.03
2023-04-12T06:08:19.839Z,98073.03
2023-04-12T06:10:53.281Z,98081.03
2023-04-12T06:13:27.003Z,98086.09
2023-04-12T06:15:58.306Z,98074.44
2023-04-12T06:18:40.516Z,98061.75
2023-04-12T06:21:17.331Z,98060.34
2023-04-12T06:23:45.304Z,98051.06
2023-04-12T06:26:20.669Z,98040.06
2023-04-12T06:28:50.740Z,98040.59
2023-04-12T06:31:31.772Z,98044.19
2023-04-12T06:36:55.178Z,98044.56
2023-04-12T06:39:31.981Z,98049.59
2023-04-12T06:42:14.870Z,98053.97
2023-04-12T06:44:43.326Z,98041.00
2023-04-12T06:47:15.741Z,98039.34
2023-04-12T06:49:44.307Z,98034.69
2023-04-12T06:52:18.288Z,98041.47
2023-04-12T06:55:01.888Z,98027.34
2023-04-12T06:57:32.296Z,98026.03
2023-04-12T07:00:02.619Z,98018.16
2023-04-12T07:02:34.487Z,98020.56
2023-04-12T07:05:08.096Z,98014.13
2023-04-12T07:07:42.022Z,98005.50
2023-04-12T07:10:15.702Z,97985.72
2023-04-12T07:12:46.728Z,97988.38
2023-04-12T07:15:19.225Z,97988.31
2023-04-12T07:17:46.938Z,97992.84
2023-04-12T07:20:24.361Z,97998.28
2023-04-12T07:22:52.130Z,97990.31
2023-04-12T07:25:22.972Z,97985.44
2023-04-12T07:27:59.984Z,97995.72
2023-04-12T07:30:31.024Z,97991.06
2023-04-12T07:33:12.460Z,97994.63
2023-04-12T07:35:50.795Z,97989.59
2023-04-12T07:38:21.972Z,97984.88
2023-04-12T07:40:52.257Z,97973.72
2023-04-12T07:43:26.261Z,97976.97
2023-04-12T07:46:01.675Z,97979.22
2023-04-12T07:48:31.347Z,97981.53
2023-04-12T07:51:05.709Z,97969.34
2023-04-12T07:53:39.152Z,97980.03
2023-04-12T07:56:09.704Z,97975.81
2023-04-12T07:58:39.835Z,97974.44
2023-04-12T08:01:11.904Z,97974.84
2023-04-12T08:06:26.200Z,97960.88
2023-04-12T08:08:58.499Z,97962.69
2023-04-12T08:11:31.251Z,97962.50
2023-04-12T08:13:59.929Z,97960.72
2023-04-12T08:16:33.460Z,97957.09
2023-04-12T08:19:09.155Z,97948.84
2023-04-12T08:21:40.878Z,97946.75
2023-04-12T08:24:11.134Z,97950.66
2023-04-12T08:26:48.278Z,97893.22
2023-04-12T08:29:18.616Z,97914.03
2023-04-12T08:31:54.796Z,97937.13
2023-04-12T08:34:38.041Z,97927.22
2023-04-12T08:37:23.585Z,97927.19
2023-04-12T08:39:56.963Z,97934.03
2023-04-12T08:42:34.731Z,97928.13
2023-04-12T08:45:14.552Z,97926.25
2023-04-12T08:47:59.499Z,97928.59
2023-04-12T08:50:33.537Z,97919.78
2023-04-12T08:53:15.914Z,97893.84
2023-04-12T08:55:55.435Z,97902.25
2023-04-12T08:58:31.914Z,97893.31
2023-04-12T09:03:59.128Z,97889.03
2023-04-12T09:06:31.160Z,97881.81
2023-04-12T09:09:09.069Z,97883.34
2023-04-12T09:11:41.287Z,97871.94
2023-04-12T09:14:29.584Z,97889.50
2023-04-12T09:17:07.625Z,97880.88
2023-04-12T09:19:39.367Z,97876.91
2023-04-12T09:22:11.945Z,97875.13
2023-04-12T09:24:54.716Z,97854.94
2023-04-12T09:27:27.962Z,97882.81
2023-04-12T09:30:23.506Z,97878.53
2023-04-12T09:32:55.886Z,97876.19
2023-04-12T09:35:43.756Z,97864.00
2023-04-12T09:38:15.819Z,97867.97
2023-04-12T09:40:46.470Z,97874.91
2023-04-12T09:43:16.809Z,97864.81
2023-04-12T09:45:44.930Z,97860.44
2023-04-12T09:48:34.888Z,97855.91
2023-04-12T09:51:05.011Z,97843.28
2023-04-12T09:53:44.529Z,97837.84
2023-04-12T09:56:20.108Z,97831.09
2023-04-12T09:58:49.465Z,97822.88
2023-04-12T10:01:20.413Z,97824.41
2023-04-12T10:04:06.435Z,97824.94
2023-04-12T10:06:41.644Z,97819.34
2023-04-12T10:09:14.505Z,97798.75
2023-04-12T10:11:48.894Z,97810.78
2023-04-12T10:14:34.710Z,97804.50
2023-04-12T10:17:07.716Z,97790.19
2023-04-12T10:19:43.225Z,97800.47
2023-04-12T10:22:16.009Z,97790.75
2023-04-12T10:25:00.663Z,97789.91
2023-04-12T10:27:33.974Z,97780.78
2023-04-12T10:30:33.028Z,97780.13
2023-04-12T10:33:12.849Z,97778.31
2023-04-12T10:36:08.746Z,97770.09
2023-04-12T10:39:15.646Z,97766.34
2023-04-12T10:42:28.193Z,97759.63
2023-04-12T10:45:58.093Z,97759.22
2023-04-12T10:48:57.009Z,97745.50
2023-04-12T10:51:30.668Z,97755.59
2023-04-12T10:54:25.702Z,97744.28
2023-04-12T10:56:57.420Z,97749.81
2023-04-12T11:00:02.884Z,97720.63
2023-04-12T11:02:45.384Z,97720.19
2023-04-12T11:08:14.504Z,97708.88
2023-04-12T11:11:25.595Z,97688.38
2023-04-12T11:14:09.875Z,97680.41
2023-04-12T11:17:07.121Z,97688.25
2023-04-12T11:19:44.477Z,97690.41
2023-04-12T11:22:16.036Z,97682.66
2023-04-12T11:24:53.543Z,97681.59
2023-04-12T11:27:23.292Z,97673.00
2023-04-12T11:30:03.151Z,97684.78
2023-04-12T11:32:44.996Z,97689.44
2023-04-12T11:35:16.394Z,97690.00
2023-04-12T11:37:48.404Z,97685.63
2023-04-12T11:43:04.057Z,97667.63
2023-04-12T11:45:48.648Z,97674.16
2023-04-12T11:48:29.764Z,97673.47
2023-04-12T11:51:11.030Z,97662.50
2023-04-12T11:53:46.588Z,97656.66
2023-04-12T11:56:18.906Z,97665.66
2023-04-12T11:58:54.967Z,97677.31
2023-04-12T12:01:33.343Z,97659.34
2023-04-12T12:04:03.283Z,97652.78
2023-04-12T12:06:52.182Z,97658.97
2023-04-12T12:09:30.483Z,97644.22
2023-04-12T12:12:01.401Z,97634.91
2023-04-12T12:14:32.697Z,97634.50
2023-04-12T12:17:03.899Z,97623.88
2023-04-12T12:19:41.824Z,97621.84
2023-04-12T12:22:23.610Z,97611.16
2023-04-12T12:25:00.518Z,97617.88
2023-04-12T12:27:47.062Z,97620.78
2023-04-12T12:30:22.422Z,97610.03
2023-04-12T12:32:59.563Z,97601.03
2023-04-12T12:35:33.197Z,97600.25
2023-04-12T12:38:15.622Z,97596.44
2023-04-12T12:40:43.627Z,97607.03
2023-04-12T12:43:25.648Z,97585.34
2023-04-12T12:46:10.054Z,97594.06
2023-04-12T12:49:01.742Z,97588.31
2023-04-12T12:51:35.715Z,97579.31
2023-04-12T12:54:21.967Z,97559.81
2023-04-12T12:57:11.470Z,97557.38
2023-04-12T12:59:51.796Z,97559.19
2023-04-12T13:02:22.290Z,97562.63
2023-04-12T13:04:53.383Z,97554.72
2023-04-12T13:07:32.791Z,97550.28
2023-04-12T13:12:50.525Z,97541.84
2023-04-12T13:15:23.237Z,97540.88
2023-04-12T13:17:56.068Z,97533.69
2023-04-12T13:20:28.757Z,97531.19
2023-04-12T13:22:59.473Z,97542.13
2023-04-12T13:25:32.078Z,97547.19
2023-04-12T13:28:05.582Z,97528.19
2023-04-12T13:30:37.781Z,97537.06
2023-04-12T13:33:16.004Z,97526.00
2023-04-12T13:35:57.709Z,97531.50
2023-04-12T13:38:30.548Z,97537.59
2023-04-12T13:41:02.374Z,97522.78
2023-04-12T13:43:35.346Z,97520.66
2023-04-12T13:46:07.068Z,97523.69
2023-04-12T13:48:41.463Z,97514.66
2023-04-12T13:51:20.796Z,97504.94
2023-04-12T13:53:51.425Z,97502.09
2023-04-12T13:56:24.657Z,97471.97
2023-04-12T13:59:08.613Z,97508.00
2023-04-12T14:01:40.124Z,97501.25
2023-04-12T14:04:34.576Z,97495.03
2023-04-12T14:07:05.918Z,97490.19
2023-04-12T14:09:37.484Z,97486.22
2023-04-12T14:12:11.056Z,97487.78
2023-04-12T14:14:44.435Z,97479.81
2023-04-12T14:17:17.933Z,97469.69
2023-04-12T14:22:32.048Z,97475.19
2023-04-12T14:25:03.084Z,97473.97
2023-04-12T14:27:35.848Z,97469.91
2023-04-12T14:30:07.296Z,97477.56
2023-04-12T14:32:38.254Z,97469.06
2023-04-12T14:35:15.231Z,97461.41
2023-04-12T14:37:47.814Z,97469.38
2023-04-12T14:40:20.801Z,97461.59
2023-04-12T14:42:51.285Z,97461.34
2023-04-12T14:45:22.557Z,97460.09
2023-04-12T14:47:54.568Z,97462.03
2023-04-12T14:53:17.378Z,97450.81
2023-04-12T14:55:46.596Z,97454.09
2023-04-12T14:58:17.406Z,97454.72
2023-04-12T15:00:47.839Z,97449.59
2023-04-12T15:03:21.491Z,97457.38
2023-04-12T15:08:45.589Z,97448.44
2023-04-12T15:11:13.953Z,97456.22
2023-04-12T15:13:48.673Z,97438.41
2023-04-12T15:19:12.528Z,97444.91
2023-04-12T15:21:53.475Z,97446.94
2023-04-12T15:24:31.273Z,97441.91
2023-04-12T15:27:04.343Z,97431.19
2023-04-12T15:29:43.336Z,97441.25
2023-04-12T15:32:19.310Z,97438.03
2023-04-12T15:34:49.500Z,97432.50
2023-04-12T15:37:20.206Z,97439.22
2023-04-12T15:40:09.447Z,97435.53
2023-04-12T15:42:39.768Z,97438.84
2023-04-12T15:45:28.645Z,97444.16
2023-04-12T15:48:00.425Z,97441.31
2023-04-12T15:50:33.176Z,97443.84
2023-04-12T15:53:06.652Z,97443.41
2023-04-12T15:55:37.402Z,97445.50
2023-04-12T15:58:11.941Z,97437.97
2023-04-12T16:00:39.963Z,97432.53
2023-04-12T16:03:21.049Z,97446.81
2023-04-12T16:05:55.203Z,97438.59
2023-04-12T16:08:30.871Z,97426.84
2023-04-12T16:11:17.177Z,97433.91
2023-04-12T16:13:52.786Z,97407.28
2023-04-12T16:16:39.679Z,97420.72
2023-04-12T16:19:14.846Z,97418.72
2023-04-12T16:22:07.525Z,97415.75
2023-04-12T16:24:45.334Z,97417.06
2023-04-12T16:27:23.702Z,97426.03
2023-04-12T16:29:53.442Z,97403.84
2023-04-12T16:32:24.618Z,97407.94
2023-04-12T16:34:55.645Z,97396.75
2023-04-12T16:37:23.956Z,97403.41
2023-04-12T16:39:54.958Z,97403.91
2023-04-12T16:42:27.016Z,97404.53
2023-04-12T16:44:57.874Z,97384.97
2023-04-12T16:47:29.387Z,97392.72
2023-04-12T16:50:00.417Z,97406.91
2023-04-12T16:52:40.737Z,97399.56
2023-04-12T16:55:12.619Z,97399.19
2023-04-12T16:57:57.094Z,97406.88
2023-04-12T17:00:31.535Z,97399.91
2023-04-12T17:03:00.846Z,97385.31
2023-04-12T17:05:33.855Z,97384.09
2023-04-12T17:08:14.576Z,97391.41
2023-04-12T17:10:51.792Z,97371.50
2023-04-12T17:13:22.648Z,97395.91
2023-04-12T17:15:53.617Z,97388.66
2023-04-12T17:21:09.778Z,97387.81
2023-04-12T17:23:45.194Z,97396.69
2023-04-12T17:26:18.984Z,97394.84
2023-04-12T17:28:46.873Z,97409.50
2023-04-12T17:31:17.469Z,97394.34
2023-04-12T17:33:58.626Z,97406.00
2023-04-12T17:36:36.914Z,97417.53
2023-04-12T17:39:18.772Z,97421.84
2023-04-12T17:41:52.136Z,97412.53
2023-04-12T17:44:26.116Z,97416.50
2023-04-12T17:46:56.350Z,97400.69
2023-04-12T17:49:25.308Z,97422.31
2023-04-12T17:51:55.619Z,97409.03
2023-04-12T17:57:09.083Z,97421.16
2023-04-12T17:59:45.153Z,97421.75
2023-04-12T18:05:11.124Z,97424.91
2023-04-12T18:07:42.552Z,97422.38
2023-04-12T18:10:21.197Z,97427.19
2023-04-12T18:12:51.394Z,97428.44
2023-04-12T18:15:27.165Z,97433.19
2023-04-12T18:18:13.724Z,97430.69
2023-04-12T18:20:49.264Z,97425.00
2023-04-12T18:23:25.513Z,97429.91
2023-04-12T18:26:08.102Z,97436.94
2023-04-12T18:28:44.754Z,97430.91
2023-04-12T18:31:15.805Z,97426.97
2023-04-12T18:33:53.594Z,97425.63
2023-04-12T18:36:24.128Z,97425.44
2023-04-12T18:38:54.722Z,97423.03
2023-04-12T18:44:13.224Z,97416.22
2023-04-12T18:46:57.885Z,97420.59
2023-04-12T18:49:26.366Z,97426.16
2023-04-12T18:51:59.169Z,97436.09
2023-04-12T18:54:44.297Z,97433.31
2023-04-12T19:00:11.425Z,97439.81
2023-04-12T19:02:44.323Z,97439.44
2023-04-12T19:05:21.563Z,97435.84
2023-04-12T19:07:53.914Z,97435.94
2023-04-12T19:10:32.230Z,97433.25
2023-04-12T19:12:59.907Z,97432.91
2023-04-12T19:15:34.100Z,97438.47
2023-04-12T19:18:12.892Z,97432.31
2023-04-12T19:20:53.068Z,97425.59
2023-04-12T19:23:23.297Z,97426.09
2023-04-12T19:25:57.142Z,97406.34
2023-04-12T19:28:27.208Z,97421.94
2023-04-12T19:30:57.567Z,97409.94
2023-04-12T19:33:32.391Z,97422.66
2023-04-12T19:36:03.108Z,97412.47
2023-04-12T19:38:46.250Z,97404.84
2023-04-12T19:41:23.681Z,97416.16
2023-04-12T19:43:54.751Z,97413.72
2023-04-12T19:46:25.305Z,97408.34
2023-04-12T19:48:56.132Z,97404.28
2023-04-12T19:51:25.564Z,97403.94
2023-04-12T19:54:00.229Z,97412.00
2023-04-12T19:56:32.471Z,97390.97
2023-04-12T19:59:08.138Z,97404.28
2023-04-12T20:01:50.721Z,97384.88
2023-04-12T20:04:24.095Z,97405.44
2023-04-12T20:06:54.089Z,97402.91
2023-04-12T20:09:23.789Z,97403.84
2023-04-12T20:11:53.490Z,97381.19
2023-04-12T20:14:40.487Z,97397.69
2023-04-12T20:17:12.313Z,97401.88
2023-04-12T20:19:42.898Z,97404.41
2023-04-12T20:22:13.532Z,97404.75
2023-04-12T20:24:50.481Z,97397.94
2023-04-12T20:30:19.718Z,97386.84
2023-04-12T20:32:49.479Z,97385.00
2023-04-12T20:35:21.456Z,97378.56
2023-04-12T20:37:51.876Z,97386.63
2023-04-12T20:40:30.474Z,97378.09
2023-04-12T20:43:00.358Z,97391.03
2023-04-12T20:45:31.083Z,97397.59
2023-04-12T20:48:01.598Z,97388.34
2023-04-12T20:50:40.068Z,97393.53
2023-04-12T20:53:09.764Z,97396.66
2023-04-12T20:55:42.672Z,97390.84
2023-04-12T20:58:17.204Z,97387.09
2023-04-12T21:00:50.836Z,97383.97
2023-04-12T21:03:24.425Z,97391.34
2023-04-12T21:05:53.953Z,97384.47
2023-04-12T21:08:26.245Z,97392.09
2023-04-12T21:10:54.197Z,97379.16
2023-04-12T21:13:39.722Z,97382.94
2023-04-12T21:16:23.865Z,97386.63
2023-04-12T21:18:55.178Z,97374.31
2023-04-12T21:21:40.276Z,97374.72
2023-04-12T21:24:16.156Z,97378.09
2023-04-12T21:26:47.766Z,97380.59
2023-04-12T21:29:22.819Z,97372.78
2023-04-12T21:31:50.974Z,97377.06
2023-04-12T21:34:23.253Z,97373.78
2023-04-12T21:36:54.800Z,97371.19
2023-04-12T21:39:38.039Z,97356.16
2023-04-12T21:42:17.032Z,97343.88
2023-04-12T21:44:53.376Z,97349.00
2023-04-12T21:47:24.797Z,97336.28
2023-04-12T21:49:58.510Z,97340.66
2023-04-12T21:52:40.425Z,97339.50
2023-04-12T21:55:21.608Z,97336.06
2023-04-12T22:00:38.454Z,97330.16
2023-04-12T22:03:08.726Z,97329.69
2023-04-12T22:05:44.555Z,97325.91
2023-04-12T22:08:26.177Z,97318.88
2023-04-12T22:10:55.534Z,97314.75
2023-04-12T22:13:29.764Z,97334.47
2023-04-12T22:15:58.088Z,97308.97
2023-04-12T22:18:31.321Z,97328.81
2023-04-12T22:21:06.288Z,97326.13
2023-04-12T22:23:41.758Z,97332.41
2023-04-12T22:26:19.865Z,97332.44
2023-04-12T22:28:51.688Z,97324.03
2023-04-12T22:31:23.902Z,97327.59
2023-04-12T22:34:04.639Z,97329.94
2023-04-12T22:36:39.285Z,97323.44
2023-04-12T22:39:11.348Z,97333.72
2023-04-12T22:41:53.033Z,97327.19
2023-04-12T22:44:24.730Z,97336.50
2023-04-12T22:46:57.131Z,97334.84
2023-04-12T22:49:29.136Z,97336.56
2023-04-12T22:52:05.237Z,97331.81
2023-04-12T22:54:35.669Z,97327.25
2023-04-12T22:57:07.388Z,97310.59
2023-04-12T22:59:39.282Z,97324.97
2023-04-12T23:02:15.454Z,97326.19
2023-04-12T23:04:52.463Z,97328.00
2023-04-12T23:07:24.138Z,97327.81
2023-04-12T23:09:53.281Z,97308.25
2023-04-12T23:12:35.215Z,97324.59
2023-04-12T23:15:07.287Z,97328.81
2023-04-12T23:20:22.082Z,97319.75
2023-04-12T23:25:43.924Z,97303.38
2023-04-12T23:28:19.497Z,97314.91
2023-04-12T23:30:50.530Z,97308.69
2023-04-12T23:33:20.378Z,97303.72
2023-04-12T23:35:52.406Z,97275.13
2023-04-12T23:38:26.121Z,97293.53
2023-04-12T23:40:54.637Z,97290.53
2023-04-12T23:43:26.068Z,97286.53
2023-04-12T23:45:57.207Z,97279.13
2023-04-12T23:48:26.026Z,97282.59
2023-04-12T23:50:56.469Z,97249.19
2023-04-12T23:53:27.149Z,97269.81
2023-04-12T23:55:58.321Z,97269.81
